sensor_id;sensor_type;location;lat;lon;timestamp;pressure;altitude;pressure_sealevel;temperature;humidity
21545;BME280;10933;50.754;11.508;2024-03-02T00:01:10;98524.84;;;3.05;100.00
21545;BME280;10933;50.754;11.508;2024-03-02T00:03:39;98515.88;;;2.87;100.00
21545;BME280;10933;50.754;11.508;2024-03-02T00:06:05;98513.06;;;2.71;100.00
21545;BME280;10933;50.754;11.508;2024-03-02T00:08:32;98508.66;;;2.76;100.00
21545;BME280;10933;50.754;11.508;2024-03-02T00:10:59;98512.81;;;2.72;100.00
21545;BME280;10933;50.754;11.508;2024-03-02T00:13:26;98503.78;;;2.73;100.00
21545;BME280;10933;50.754;11.508;2024-03-02T00:15:56;98500.94;;;2.86;100.00
21545;BME280;10933;50.754;11.508;2024-03-02T00:18:34;98497.81;;;2.89;100.00
21545;BME280;10933;50.754;11.508;2024-03-02T00:21:00;98494.88;;;2.79;100.00
21545;BME280;10933;50.754;11.508;2024-03-02T00:23:30;98477.63;;;2.70;100.00
21545;BME280;10933;50.754;11.508;2024-03-02T00:25:57;98483.31;;;2.74;100.00
21545;BME280;10933;50.754;11.508;2024-03-02T00:28:36;98485.78;;;2.57;100.00
21545;BME280;10933;50.754;11.508;2024-03-02T00:33:35;98493.50;;;2.47;100.00
21545;BME280;10933;50.754;11.508;2024-03-02T00:36:03;98497.03;;;2.59;100.00
21545;BME280;10933;50.754;11.508;2024-03-02T00:38:30;98496.22;;;2.58;100.00
21545;BME280;10933;50.754;11.508;2024-03-02T00:41:05;98499.09;;;2.87;100.00
21545;BME280;10933;50.754;11.508;2024-03-02T00:46:17;98484.03;;;2.51;100.00
21545;BME280;10933;50.754;11.508;2024-03-02T00:48:58;98491.06;;;2.45;100.00
21545;BME280;10933;50.754;11.508;2024-03-02T00:51:26;98490.78;;;2.65;100.00
21545;BME280;10933;50.754;11.508;2024-03-02T00:53:54;98500.72;;;2.88;100.00
21545;BME280;10933;50.754;11.508;2024-03-02T00:56:24;98486.47;;;2.82;100.00
21545;BME280;10933;50.754;11.508;2024-03-02T00:58:51;98491.25;;;2.62;100.00
21545;BME280;10933;50.754;11.508;2024-03-02T01:01:18;98494.31;;;2.77;100.00
21545;BME280;10933;50.754;11.508;2024-03-02T01:03:45;98493.16;;;2.73;100.00
21545;BME280;10933;50.754;11.508;2024-03-02T01:06:11;98487.47;;;2.70;100.00
21545;BME280;10933;50.754;11.508;2024-03-02T01:08:39;98494.50;;;2.64;100.00
21545;BME280;10933;50.754;11.508;2024-03-02T01:11:05;98500.56;;;2.71;100.00
21545;BME280;10933;50.754;11.508;2024-03-02T01:13:32;98499.38;;;2.67;100.00
21545;BME280;10933;50.754;11.508;2024-03-02T01:15:58;98499.38;;;2.67;100.00
21545;BME280;10933;50.754;11.508;2024-03-02T01:18:25;98502.97;;;2.73;100.00
21545;BME280;10933;50.754;11.508;2024-03-02T01:20:52;98514.44;;;2.73;100.00
21545;BME280;10933;50.754;11.508;2024-03-02T01:23:20;98501.25;;;2.78;100.00
21545;BME280;10933;50.754;11.508;2024-03-02T01:25:51;98510.50;;;2.76;100.00
21545;BME280;10933;50.754;11.508;2024-03-02T01:28:18;98515.75;;;2.82;100.00
21545;BME280;10933;50.754;11.508;2024-03-02T01:30:47;98522.47;;;2.85;100.00
21545;BME280;10933;50.754;11.508;2024-03-02T01:33:14;98519.41;;;3.00;100.00
21545;BME280;10933;50.754;11.508;2024-03-02T01:35:40;98517.28;;;2.90;100.00
21545;BME280;10933;50.754;11.508;2024-03-02T01:38:06;98518.50;;;2.76;100.00
21545;BME280;10933;50.754;11.508;2024-03-02T01:40:33;98521.66;;;2.84;100.00
21545;BME280;10933;50.754;11.508;2024-03-02T01:43:00;98524.03;;;2.92;100.00
21545;BME280;10933;50.754;11.508;2024-03-02T01:45:26;98521.56;;;2.91;100.00
21545;BME280;10933;50.754;11.508;2024-03-02T01:47:52;98519.06;;;2.96;100.00
21545;BME280;10933;50.754;11.508;2024-03-02T01:50:29;98513.81;;;2.89;100.00
21545;BME280;10933;50.754;11.508;2024-03-02T01:52:58;98512.09;;;2.95;100.00
21545;BME280;10933;50.754;11.508;2024-03-02T01:55:25;98513.00;;;2.89;100.00
21545;BME280;10933;50.754;11.508;2024-03-02T01:57:52;98520.97;;;2.89;100.00
21545;BME280;10933;50.754;11.508;2024-03-02T02:00:19;98518.69;;;2.92;100.00
21545;BME280;10933;50.754;11.508;2024-03-02T02:02:49;98516.50;;;3.01;100.00
21545;BME280;10933;50.754;11.508;2024-03-02T02:05:15;98527.63;;;2.98;100.00
21545;BME280;10933;50.754;11.508;2024-03-02T02:07:42;98521.16;;;3.06;100.00
21545;BME280;10933;50.754;11.508;2024-03-02T02:10:09;98526.81;;;2.98;100.00
21545;BME280;10933;50.754;11.508;2024-03-02T02:12:36;98533.88;;;3.04;100.00
21545;BME280;10933;50.754;11.508;2024-03-02T02:15:03;98531.22;;;3.04;100.00
21545;BME280;10933;50.754;11.508;2024-03-02T02:17:29;98538.59;;;3.20;100.00
21545;BME280;10933;50.754;11.508;2024-03-02T02:19:55;98540.66;;;3.18;100.00
21545;BME280;10933;50.754;11.508;2024-03-02T02:22:21;98541.69;;;3.17;100.00
21545;BME280;10933;50.754;11.508;2024-03-02T02:24:47;98550.03;;;3.09;100.00
21545;BME280;10933;50.754;11.508;2024-03-02T02:27:13;98548.75;;;3.11;100.00
21545;BME280;10933;50.754;11.508;2024-03-02T02:29:41;98544.50;;;3.22;100.00
21545;BME280;10933;50.754;11.508;2024-03-02T02:32:08;98554.50;;;3.38;100.00
21545;BME280;10933;50.754;11.508;2024-03-02T02:34:34;98544.75;;;3.32;100.00
21545;BME280;10933;50.754;11.508;2024-03-02T02:37:00;98548.69;;;3.41;100.00
21545;BME280;10933;50.754;11.508;2024-03-02T02:39:26;98548.84;;;3.58;100.00
21545;BME280;10933;50.754;11.508;2024-03-02T02:41:53;98558.72;;;3.58;100.00
21545;BME280;10933;50.754;11.508;2024-03-02T02:44:19;98550.22;;;3.49;100.00
21545;BME280;10933;50.754;11.508;2024-03-02T02:46:45;98570.19;;;3.58;100.00
21545;BME280;10933;50.754;11.508;2024-03-02T02:49:11;98567.88;;;3.62;100.00
21545;BME280;10933;50.754;11.508;2024-03-02T02:51:37;98566.31;;;3.42;100.00
21545;BME280;10933;50.754;11.508;2024-03-02T02:54:03;98575.03;;;3.49;100.00
21545;BME280;10933;50.754;11.508;2024-03-02T02:56:29;98581.44;;;3.72;100.00
21545;BME280;10933;50.754;11.508;2024-03-02T02:58:55;98578.31;;;3.63;100.00
21545;BME280;10933;50.754;11.508;2024-03-02T03:01:21;98569.25;;;3.64;100.00
21545;BME280;10933;50.754;11.508;2024-03-02T03:03:48;98566.59;;;3.76;100.00
21545;BME280;10933;50.754;11.508;2024-03-02T03:06:14;98568.66;;;3.50;100.00
21545;BME280;10933;50.754;11.508;2024-03-02T03:08:40;98588.56;;;3.36;100.00
21545;BME280;10933;50.754;11.508;2024-03-02T03:11:06;98610.34;;;3.33;100.00
21545;BME280;10933;50.754;11.508;2024-03-02T03:13:34;98628.25;;;3.44;100.00
21545;BME280;10933;50.754;11.508;2024-03-02T03:16:00;98642.16;;;3.46;100.00
21545;BME280;10933;50.754;11.508;2024-03-02T03:18:26;98665.56;;;3.44;100.00
21545;BME280;10933;50.754;11.508;2024-03-02T03:20:52;98685.63;;;3.47;100.00
21545;BME280;10933;50.754;11.508;2024-03-02T03:23:18;98690.03;;;3.53;100.00
21545;BME280;10933;50.754;11.508;2024-03-02T03:25:44;98706.53;;;3.62;100.00
21545;BME280;10933;50.754;11.508;2024-03-02T03:28:10;98703.38;;;3.53;100.00
21545;BME280;10933;50.754;11.508;2024-03-02T03:30:38;98722.84;;;3.53;100.00
21545;BME280;10933;50.754;11.508;2024-03-02T03:33:05;98721.22;;;3.52;100.00
21545;BME280;10933;50.754;11.508;2024-03-02T03:35:34;98744.91;;;3.61;100.00
21545;BME280;10933;50.754;11.508;2024-03-02T03:38:00;98752.16;;;3.72;100.00
21545;BME280;10933;50.754;11.508;2024-03-02T03:40:27;98754.81;;;3.72;100.00
21545;BME280;10933;50.754;11.508;2024-03-02T03:42:53;98759.63;;;3.93;100.00
21545;BME280;10933;50.754;11.508;2024-03-02T03:45:19;98747.50;;;3.97;100.00
21545;BME280;10933;50.754;11.508;2024-03-02T03:47:46;98747.19;;;4.17;100.00
21545;BME280;10933;50.754;11.508;2024-03-02T03:50:12;98735.66;;;4.05;100.00
21545;BME280;10933;50.754;11.508;2024-03-02T03:52:38;98730.91;;;3.95;100.00
21545;BME280;10933;50.754;11.508;2024-03-02T03:55:05;98723.41;;;3.74;100.00
21545;BME280;10933;50.754;11.508;2024-03-02T03:57:31;98729.81;;;3.84;100.00
21545;BME280;10933;50.754;11.508;2024-03-02T03:59:57;98739.75;;;3.77;100.00
21545;BME280;10933;50.754;11.508;2024-03-02T04:02:23;98739.22;;;3.87;100.00
21545;BME280;10933;50.754;11.508;2024-03-02T04:04:50;98731.94;;;3.94;100.00
21545;BME280;10933;50.754;11.508;2024-03-02T04:07:16;98728.69;;;4.04;100.00
21545;BME280;10933;50.754;11.508;2024-03-02T04:09:43;98734.69;;;3.88;100.00
21545;BME280;10933;50.754;11.508;2024-03-02T04:12:09;98729.72;;;3.91;100.00
21545;BME280;10933;50.754;11.508;2024-03-02T04:14:35;98720.94;;;4.14;100.00
21545;BME280;10933;50.754;11.508;2024-03-02T04:17:01;98722.81;;;4.13;100.00
21545;BME280;10933;50.754;11.508;2024-03-02T04:19:28;98715.97;;;4.29;100.00
21545;BME280;10933;50.754;11.508;2024-03-02T04:21:54;98700.13;;;3.93;100.00
21545;BME280;10933;50.754;11.508;2024-03-02T04:24:20;98717.41;;;3.90;100.00
21545;BME280;10933;50.754;11.508;2024-03-02T04:26:46;98714.06;;;3.95;100.00
21545;BME280;10933;50.754;11.508;2024-03-02T04:29:12;98718.28;;;3.72;100.00
21545;BME280;10933;50.754;11.508;2024-03-02T04:31:39;98729.44;;;3.69;100.00
21545;BME280;10933;50.754;11.508;2024-03-02T04:34:05;98743.16;;;3.84;100.00
21545;BME280;10933;50.754;11.508;2024-03-02T04:36:31;98744.81;;;3.67;100.00
21545;BME280;10933;50.754;11.508;2024-03-02T04:38:57;98765.97;;;3.50;100.00
21545;BME280;10933;50.754;11.508;2024-03-02T04:41:23;98784.03;;;3.48;100.00
21545;BME280;10933;50.754;11.508;2024-03-02T04:43:49;98789.84;;;3.45;100.00
21545;BME280;10933;50.754;11.508;2024-03-02T04:46:15;98801.38;;;3.39;100.00
21545;BME280;10933;50.754;11.508;2024-03-02T04:48:41;98816.19;;;3.53;100.00
21545;BME280;10933;50.754;11.508;2024-03-02T04:51:07;98822.19;;;3.49;100.00
21545;BME280;10933;50.754;11.508;2024-03-02T04:53:33;98822.09;;;3.55;100.00
21545;BME280;10933;50.754;11.508;2024-03-02T04:55:59;98838.09;;;3.55;100.00
21545;BME280;10933;50.754;11.508;2024-03-02T04:58:44;98829.97;;;3.50;100.00
21545;BME280;10933;50.754;11.508;2024-03-02T05:01:10;98846.72;;;3.58;100.00
21545;BME280;10933;50.754;11.508;2024-03-02T05:03:36;98855.44;;;3.65;100.00
21545;BME280;10933;50.754;11.508;2024-03-02T05:06:03;98848.91;;;3.79;100.00
21545;BME280;10933;50.754;11.508;2024-03-02T05:08:29;98849.28;;;4.12;100.00
21545;BME280;10933;50.754;11.508;2024-03-02T05:10:55;98842.59;;;3.92;100.00
21545;BME280;10933;50.754;11.508;2024-03-02T05:13:41;98838.50;;;3.89;100.00
21545;BME280;10933;50.754;11.508;2024-03-02T05:16:07;98846.69;;;3.94;100.00
21545;BME280;10933;50.754;11.508;2024-03-02T05:18:33;98857.25;;;4.31;100.00
21545;BME280;10933;50.754;11.508;2024-03-02T05:20:59;98843.03;;;4.19;100.00
21545;BME280;10933;50.754;11.508;2024-03-02T05:23:25;98846.41;;;4.14;100.00
21545;BME280;10933;50.754;11.508;2024-03-02T05:25:51;98856.72;;;4.10;100.00
21545;BME280;10933;50.754;11.508;2024-03-02T05:28:17;98855.16;;;4.03;100.00
21545;BME280;10933;50.754;11.508;2024-03-02T05:30:43;98846.44;;;3.96;100.00
21545;BME280;10933;50.754;11.508;2024-03-02T05:33:09;98864.16;;;4.08;100.00
21545;BME280;10933;50.754;11.508;2024-03-02T05:35:36;98846.75;;;4.18;100.00
21545;BME280;10933;50.754;11.508;2024-03-02T05:38:02;98849.34;;;4.24;100.00
21545;BME280;10933;50.754;11.508;2024-03-02T05:40:28;98839.50;;;4.06;100.00
21545;BME280;10933;50.754;11.508;2024-03-02T05:42:54;98844.94;;;4.00;100.00
21545;BME280;10933;50.754;11.508;2024-03-02T05:45:20;98854.28;;;4.09;100.00
21545;BME280;10933;50.754;11.508;2024-03-02T05:47:46;98853.81;;;4.12;100.00
21545;BME280;10933;50.754;11.508;2024-03-02T05:50:12;98854.09;;;4.22;100.00
21545;BME280;10933;50.754;11.508;2024-03-02T05:52:38;98836.53;;;4.14;100.00
21545;BME280;10933;50.754;11.508;2024-03-02T05:55:05;98827.34;;;4.10;100.00
21545;BME280;10933;50.754;11.508;2024-03-02T05:57:31;98840.25;;;4.13;100.00
21545;BME280;10933;50.754;11.508;2024-03-02T06:00:09;98846.13;;;4.34;100.00
21545;BME280;10933;50.754;11.508;2024-03-02T06:02:39;98846.72;;;4.36;100.00
21545;BME280;10933;50.754;11.508;2024-03-02T06:05:06;98848.06;;;4.27;100.00
21545;BME280;10933;50.754;11.508;2024-03-02T06:07:35;98845.53;;;4.32;100.00
21545;BME280;10933;50.754;11.508;2024-03-02T06:10:02;98839.91;;;4.10;100.00
21545;BME280;10933;50.754;11.508;2024-03-02T06:12:28;98840.16;;;4.20;100.00
21545;BME280;10933;50.754;11.508;2024-03-02T06:14:56;98840.41;;;4.30;100.00
21545;BME280;10933;50.754;11.508;2024-03-02T06:17:22;98832.63;;;4.29;100.00
21545;BME280;10933;50.754;11.508;2024-03-02T06:19:48;98829.84;;;4.24;100.00
21545;BME280;10933;50.754;11.508;2024-03-02T06:22:14;98845.03;;;4.23;100.00
21545;BME280;10933;50.754;11.508;2024-03-02T06:24:40;98851.50;;;4.46;100.00
21545;BME280;10933;50.754;11.508;2024-03-02T06:27:06;98841.28;;;4.54;100.00
21545;BME280;10933;50.754;11.508;2024-03-02T06:29:33;98848.38;;;4.49;100.00
21545;BME280;10933;50.754;11.508;2024-03-02T06:32:00;98840.97;;;4.62;100.00
21545;BME280;10933;50.754;11.508;2024-03-02T06:34:26;98847.72;;;4.77;100.00
21545;BME280;10933;50.754;11.508;2024-03-02T06:36:52;98836.91;;;4.95;100.00
21545;BME280;10933;50.754;11.508;2024-03-02T06:39:18;98828.66;;;5.08;100.00
21545;BME280;10933;50.754;11.508;2024-03-02T06:41:44;98816.72;;;5.22;100.00
21545;BME280;10933;50.754;11.508;2024-03-02T06:44:10;98792.44;;;4.77;100.00
21545;BME280;10933;50.754;11.508;2024-03-02T06:46:36;98797.75;;;5.24;100.00
21545;BME280;10933;50.754;11.508;2024-03-02T06:49:02;98786.13;;;5.07;100.00
21545;BME280;10933;50.754;11.508;2024-03-02T06:51:29;98764.91;;;4.88;100.00
21545;BME280;10933;50.754;11.508;2024-03-02T06:53:56;98772.44;;;5.15;100.00
21545;BME280;10933;50.754;11.508;2024-03-02T06:56:22;98775.38;;;5.53;100.00
21545;BME280;10933;50.754;11.508;2024-03-02T06:58:48;98747.44;;;5.61;100.00
21545;BME280;10933;50.754;11.508;2024-03-02T07:01:14;98731.63;;;5.59;100.00
21545;BME280;10933;50.754;11.508;2024-03-02T07:03:40;98707.59;;;5.48;100.00
21545;BME280;10933;50.754;11.508;2024-03-02T07:06:06;98691.06;;;5.51;100.00
21545;BME280;10933;50.754;11.508;2024-03-02T07:08:33;98670.78;;;5.55;100.00
21545;BME280;10933;50.754;11.508;2024-03-02T07:10:59;98659.28;;;5.54;100.00
21545;BME280;10933;50.754;11.508;2024-03-02T07:13:26;98654.94;;;5.65;100.00
21545;BME280;10933;50.754;11.508;2024-03-02T07:15:52;98646.53;;;5.73;100.00
21545;BME280;10933;50.754;11.508;2024-03-02T07:18:37;98630.94;;;5.70;100.00
21545;BME280;10933;50.754;11.508;2024-03-02T07:21:07;98614.72;;;5.77;100.00
21545;BME280;10933;50.754;11.508;2024-03-02T07:23:34;98618.13;;;5.89;100.00
21545;BME280;10933;50.754;11.508;2024-03-02T07:26:01;98587.81;;;6.17;100.00
21545;BME280;10933;50.754;11.508;2024-03-02T07:28:27;98561.88;;;6.01;100.00
21545;BME280;10933;50.754;11.508;2024-03-02T07:31:03;98562.50;;;5.57;100.00
21545;BME280;10933;50.754;11.508;2024-03-02T07:33:30;98551.78;;;5.57;100.00
21545;BME280;10933;50.754;11.508;2024-03-02T07:35:57;98546.44;;;6.08;100.00
21545;BME280;10933;50.754;11.508;2024-03-02T07:38:25;98531.16;;;6.25;100.00
21545;BME280;10933;50.754;11.508;2024-03-02T07:40:51;98493.53;;;6.15;100.00
21545;BME280;10933;50.754;11.508;2024-03-02T07:43:18;98502.13;;;6.17;100.00
21545;BME280;10933;50.754;11.508;2024-03-02T07:45:45;98482.47;;;5.73;100.00
21545;BME280;10933;50.754;11.508;2024-03-02T07:48:12;98493.28;;;5.61;100.00
21545;BME280;10933;50.754;11.508;2024-03-02T07:50:38;98513.44;;;5.85;100.00
21545;BME280;10933;50.754;11.508;2024-03-02T07:53:05;98508.75;;;5.76;100.00
21545;BME280;10933;50.754;11.508;2024-03-02T07:55:32;98532.09;;;5.64;100.00
21545;BME280;10933;50.754;11.508;2024-03-02T07:57:58;98544.97;;;5.83;100.00
21545;BME280;10933;50.754;11.508;2024-03-02T08:00:25;98551.66;;;5.98;100.00
21545;BME280;10933;50.754;11.508;2024-03-02T08:02:52;98552.78;;;6.02;100.00
21545;BME280;10933;50.754;11.508;2024-03-02T08:05:18;98555.31;;;6.30;100.00
21545;BME280;10933;50.754;11.508;2024-03-02T08:07:48;98550.47;;;6.27;100.00
21545;BME280;10933;50.754;11.508;2024-03-02T08:10:18;98554.22;;;6.70;100.00
21545;BME280;10933;50.754;11.508;2024-03-02T08:12:45;98547.75;;;7.47;100.00
21545;BME280;10933;50.754;11.508;2024-03-02T08:15:11;98517.72;;;7.18;100.00
21545;BME280;10933;50.754;11.508;2024-03-02T08:17:40;98522.94;;;7.02;100.00
21545;BME280;10933;50.754;11.508;2024-03-02T08:20:14;98501.84;;;6.84;100.00
21545;BME280;10933;50.754;11.508;2024-03-02T08:22:40;98506.59;;;7.04;100.00
21545;BME280;10933;50.754;11.508;2024-03-02T08:25:07;98490.25;;;7.70;100.00
21545;BME280;10933;50.754;11.508;2024-03-02T08:27:34;98476.78;;;8.02;100.00
21545;BME280;10933;50.754;11.508;2024-03-02T08:30:00;98467.13;;;7.63;100.00
21545;BME280;10933;50.754;11.508;2024-03-02T08:32:26;98468.44;;;8.03;100.00
21545;BME280;10933;50.754;11.508;2024-03-02T08:34:52;98456.47;;;8.31;100.00
21545;BME280;10933;50.754;11.508;2024-03-02T08:37:18;98452.88;;;8.10;100.00
21545;BME280;10933;50.754;11.508;2024-03-02T08:39:45;98441.97;;;8.32;100.00
21545;BME280;10933;50.754;11.508;2024-03-02T08:42:11;98443.81;;;8.21;100.00
21545;BME280;10933;50.754;11.508;2024-03-02T08:44:38;98452.34;;;8.08;100.00
21545;BME280;10933;50.754;11.508;2024-03-02T08:47:04;98453.69;;;8.06;100.00
21545;BME280;10933;50.754;11.508;2024-03-02T08:49:30;98464.69;;;8.04;100.00
21545;BME280;10933;50.754;11.508;2024-03-02T08:51:56;98466.63;;;8.81;100.00
21545;BME280;10933;50.754;11.508;2024-03-02T08:54:22;98462.84;;;8.82;100.00
21545;BME280;10933;50.754;11.508;2024-03-02T08:56:49;98448.34;;;8.94;100.00
21545;BME280;10933;50.754;11.508;2024-03-02T08:59:16;98447.84;;;9.32;100.00
21545;BME280;10933;50.754;11.508;2024-03-02T09:01:42;98431.44;;;9.03;100.00
21545;BME280;10933;50.754;11.508;2024-03-02T09:04:09;98415.53;;;9.37;100.00
21545;BME280;10933;50.754;11.508;2024-03-02T09:06:35;98410.53;;;10.00;100.00
21545;BME280;10933;50.754;11.508;2024-03-02T09:09:01;98393.91;;;9.78;100.00
21545;BME280;10933;50.754;11.508;2024-03-02T09:11:27;98393.34;;;9.86;100.00
21545;BME280;10933;50.754;11.508;2024-03-02T09:13:53;98402.09;;;9.12;100.00
21545;BME280;10933;50.754;11.508;2024-03-02T09:16:21;98411.19;;;9.52;100.00
21545;BME280;10933;50.754;11.508;2024-03-02T09:18:47;98415.81;;;9.21;100.00
21545;BME280;10933;50.754;11.508;2024-03-02T09:21:14;98415.50;;;9.68;100.00
21545;BME280;10933;50.754;11.508;2024-03-02T09:23:41;98410.03;;;9.88;100.00
21545;BME280;10933;50.754;11.508;2024-03-02T09:26:10;98405.22;;;9.75;100.00
21545;BME280;10933;50.754;11.508;2024-03-02T09:28:36;98409.00;;;9.74;100.00
21545;BME280;10933;50.754;11.508;2024-03-02T09:31:02;98416.59;;;9.52;100.00
21545;BME280;10933;50.754;11.508;2024-03-02T09:33:28;98420.41;;;9.30;100.00
21545;BME280;10933;50.754;11.508;2024-03-02T09:35:54;98427.81;;;9.89;100.00
21545;BME280;10933;50.754;11.508;2024-03-02T09:38:20;98421.41;;;9.80;100.00
21545;BME280;10933;50.754;11.508;2024-03-02T09:40:47;98417.66;;;9.61;100.00
21545;BME280;10933;50.754;11.508;2024-03-02T09:43:14;98426.84;;;9.55;100.00
21545;BME280;10933;50.754;11.508;2024-03-02T09:45:40;98433.19;;;9.89;100.00
21545;BME280;10933;50.754;11.508;2024-03-02T09:48:07;98421.31;;;10.06;100.00
21545;BME280;10933;50.754;11.508;2024-03-02T09:50:33;98425.09;;;9.99;100.00
21545;BME280;10933;50.754;11.508;2024-03-02T09:52:59;98433.25;;;9.64;100.00
21545;BME280;10933;50.754;11.508;2024-03-02T09:55:25;98437.84;;;9.79;100.00
21545;BME280;10933;50.754;11.508;2024-03-02T09:57:51;98433.06;;;10.40;100.00
21545;BME280;10933;50.754;11.508;2024-03-02T10:00:18;98430.59;;;10.49;100.00
21545;BME280;10933;50.754;11.508;2024-03-02T10:02:44;98430.78;;;11.07;100.00
21545;BME280;10933;50.754;11.508;2024-03-02T10:05:27;98450.09;;;11.53;100.00
21545;BME280;10933;50.754;11.508;2024-03-02T10:08:03;98455.91;;;11.36;100.00
21545;BME280;10933;50.754;11.508;2024-03-02T10:13:06;98482.59;;;11.43;100.00
21545;BME280;10933;50.754;11.508;2024-03-02T10:15:33;98489.63;;;12.07;100.00
21545;BME280;10933;50.754;11.508;2024-03-02T10:17:59;98513.25;;;12.44;100.00
21545;BME280;10933;50.754;11.508;2024-03-02T10:20:27;98524.72;;;12.60;100.00
21545;BME280;10933;50.754;11.508;2024-03-02T10:22:58;98538.19;;;13.27;100.00
21545;BME280;10933;50.754;11.508;2024-03-02T10:25:35;98554.41;;;13.08;100.00
21545;BME280;10933;50.754;11.508;2024-03-02T10:28:01;98565.81;;;13.05;100.00
21545;BME280;10933;50.754;11.508;2024-03-02T10:30:27;98575.81;;;12.85;100.00
21545;BME280;10933;50.754;11.508;2024-03-02T10:32:54;98570.78;;;12.26;100.00
21545;BME280;10933;50.754;11.508;2024-03-02T10:35:24;98561.28;;;12.28;100.00
21545;BME280;10933;50.754;11.508;2024-03-02T10:37:52;98571.50;;;11.73;100.00
21545;BME280;10933;50.754;11.508;2024-03-02T10:40:21;98562.66;;;11.63;100.00
21545;BME280;10933;50.754;11.508;2024-03-02T10:42:49;98565.53;;;11.82;100.00
21545;BME280;10933;50.754;11.508;2024-03-02T10:45:16;98579.38;;;12.57;100.00
21545;BME280;10933;50.754;11.508;2024-03-02T10:47:43;98560.31;;;12.43;100.00
21545;BME280;10933;50.754;11.508;2024-03-02T10:50:12;98570.63;;;13.08;100.00
21545;BME280;10933;50.754;11.508;2024-03-02T10:52:38;98592.38;;;12.79;100.00
21545;BME280;10933;50.754;11.508;2024-03-02T10:55:09;98600.78;;;13.81;100.00
21545;BME280;10933;50.754;11.508;2024-03-02T10:57:50;98603.00;;;14.86;100.00
21545;BME280;10933;50.754;11.508;2024-03-02T11:00:17;98630.88;;;14.78;100.00
21545;BME280;10933;50.754;11.508;2024-03-02T11:02:50;98635.91;;;14.05;100.00
21545;BME280;10933;50.754;11.508;2024-03-02T11:05:23;98640.59;;;15.61;100.00
21545;BME280;10933;50.754;11.508;2024-03-02T11:07:57;98636.34;;;16.89;100.00
21545;BME280;10933;50.754;11.508;2024-03-02T11:10:23;98674.63;;;17.98;100.00
21545;BME280;10933;50.754;11.508;2024-03-02T11:13:00;98722.09;;;16.47;100.00
21545;BME280;10933;50.754;11.508;2024-03-02T11:15:28;98723.63;;;16.17;100.00
21545;BME280;10933;50.754;11.508;2024-03-02T11:17:55;98713.88;;;15.52;100.00
21545;BME280;10933;50.754;11.508;2024-03-02T11:20:23;98719.31;;;15.80;100.00
21545;BME280;10933;50.754;11.508;2024-03-02T11:22:49;98716.47;;;16.43;100.00
21545;BME280;10933;50.754;11.508;2024-03-02T11:25:28;98710.25;;;15.29;100.00
21545;BME280;10933;50.754;11.508;2024-03-02T11:32:59;98722.19;;;17.57;100.00
21545;BME280;10933;50.754;11.508;2024-03-02T11:35:26;98725.22;;;17.56;100.00
21545;BME280;10933;50.754;11.508;2024-03-02T11:37:55;98707.94;;;16.81;100.00
21545;BME280;10933;50.754;11.508;2024-03-02T11:40:25;98720.66;;;17.74;100.00
21545;BME280;10933;50.754;11.508;2024-03-02T11:42:51;98738.56;;;17.18;100.00
21545;BME280;10933;50.754;11.508;2024-03-02T11:45:23;98720.44;;;16.15;100.00
21545;BME280;10933;50.754;11.508;2024-03-02T11:48:00;98728.06;;;17.82;100.00
21545;BME280;10933;50.754;11.508;2024-03-02T11:50:36;98738.97;;;17.99;100.00
21545;BME280;10933;50.754;11.508;2024-03-02T11:53:07;98761.63;;;18.51;100.00
21545;BME280;10933;50.754;11.508;2024-03-02T11:55:37;98744.22;;;17.78;100.00
21545;BME280;10933;50.754;11.508;2024-03-02T11:58:04;98743.63;;;18.42;100.00
21545;BME280;10933;50.754;11.508;2024-03-02T12:00:30;98744.75;;;17.80;100.00
21545;BME280;10933;50.754;11.508;2024-03-02T12:03:01;98757.00;;;18.17;100.00
21545;BME280;10933;50.754;11.508;2024-03-02T12:05:28;98746.97;;;17.30;100.00
21545;BME280;10933;50.754;11.508;2024-03-02T12:07:58;98745.13;;;17.56;100.00
21545;BME280;10933;50.754;11.508;2024-03-02T12:10:25;98741.88;;;17.46;100.00
21545;BME280;10933;50.754;11.508;2024-03-02T12:12:58;98748.88;;;16.98;100.00
21545;BME280;10933;50.754;11.508;2024-03-02T12:15:28;98737.75;;;16.64;100.00
21545;BME280;10933;50.754;11.508;2024-03-02T12:17:59;98738.03;;;17.07;100.00
21545;BME280;10933;50.754;11.508;2024-03-02T12:20:27;98736.22;;;17.33;100.00
21545;BME280;10933;50.754;11.508;2024-03-02T12:22:56;98735.44;;;17.90;100.00
21545;BME280;10933;50.754;11.508;2024-03-02T12:25:24;98736.00;;;17.21;100.00
21545;BME280;10933;50.754;11.508;2024-03-02T12:28:00;98736.53;;;16.70;100.00
21545;BME280;10933;50.754;11.508;2024-03-02T12:30:29;98726.28;;;16.98;100.00
21545;BME280;10933;50.754;11.508;2024-03-02T12:32:55;98725.16;;;16.68;100.00
21545;BME280;10933;50.754;11.508;2024-03-02T12:35:23;98724.31;;;16.23;100.00
21545;BME280;10933;50.754;11.508;2024-03-02T12:37:51;98729.34;;;16.52;100.00
21545;BME280;10933;50.754;11.508;2024-03-02T12:40:18;98733.00;;;16.47;100.00
21545;BME280;10933;50.754;11.508;2024-03-02T12:42:46;98727.09;;;16.98;100.00
21545;BME280;10933;50.754;11.508;2024-03-02T12:45:13;98731.63;;;17.12;100.00
21545;BME280;10933;50.754;11.508;2024-03-02T12:47:41;98726.81;;;17.09;100.00
21545;BME280;10933;50.754;11.508;2024-03-02T12:50:08;98727.13;;;17.47;100.00
21545;BME280;10933;50.754;11.508;2024-03-02T12:52:35;98736.91;;;18.22;100.00
21545;BME280;10933;50.754;11.508;2024-03-02T12:55:05;98728.13;;;17.59;100.00
21545;BME280;10933;50.754;11.508;2024-03-02T12:57:33;98725.41;;;17.59;100.00
21545;BME280;10933;50.754;11.508;2024-03-02T13:00:00;98723.94;;;17.62;100.00
21545;BME280;10933;50.754;11.508;2024-03-02T13:02:30;98720.03;;;17.37;100.00